Portada
METAR-TAF:

METAR-TAF

Aeroports :

Madrid-Cuatro Vientos, Espanya

latitud: 40-23N, longitud: 003-47W, altitud: 690 m

Observació

L'informe es va fer fa 2 hores i 42 minuts, a les 19:00 UTC
Vent 8 kt del Oest/Sud-Oest, variant entre Sud/Sud-Oest i Oest
Temperatura 5°C
Humitat 93%
Pressió 1013 hPa
Visibilitat 10 km o més
Escasses núvols a una alçada de 4100 ft

METAR: LEVS 221900Z 24008KT 210V280 9999 FEW041 05/04 Q1013

Hora: 22:42 (21:42 UTC)

Pronòstic

L'informe es va fer fa 4 hores i 42 minuts, a les 17:00 UTC
Pronòstic vàlid del 22 a les 18 UTC al 23 a les 03 UTC
Vent 10 kt del Oest/Sud-Oest
Visibilitat 10 km o més
Cel ennuvolat a una alçada de 2500 ft
Cel ennuvolat a una alçada de 4000 ft
Probabilitat 40% :
Temporalment
l' 22 a les 18 UTC al 22 a les 20 UTC
Visibilitat: 4000 m
Cel ennuvolat a una alçada de 1200 ft
plugim, pluja

TAF: LEVS 221700Z 2218/2303 25010KT 9999 BKN025 BKN040 PROB40 TEMPO 2218/2220 4000 DZRA BKN012

Observacions i pronòstics meteorològics de més de 4000 aeroports (METAR i TAF).

Les estacions disponibles són els punts grocs i vermells al mapa.

Posi el ratolí al punt desitjat per veure el nom de l'estació.

Feu clic per veure les observacions i els pronòstics meteorològics.

Per canviar el mapa: feu clic els botons verds amb una creu de color negre per apropar; al botó verd amb un guió per allunyar la imatge; o en les fletxes verdes per a mapes adjacents.


METAR-TAF: